createdAt,value
2018-01-04T00:01:16.560Z,9.04
2018-01-04T00:03:47.051Z,8.98
2018-01-04T00:06:17.737Z,8.95
2018-01-04T00:08:47.712Z,8.93
2018-01-04T00:11:16.919Z,8.91
2018-01-04T00:13:46.463Z,8.88
2018-01-04T00:16:16.367Z,8.88
2018-01-04T00:18:45.577Z,8.97
2018-01-04T00:21:14.878Z,8.97
2018-01-04T00:23:44.383Z,9.00
2018-01-04T00:26:14.440Z,9.00
2018-01-04T00:28:43.576Z,9.05
2018-01-04T00:31:12.754Z,9.04
2018-01-04T00:33:43.686Z,9.09
2018-01-04T00:36:18.282Z,9.06
2018-01-04T00:38:47.461Z,9.06
2018-01-04T00:41:16.997Z,9.05
2018-01-04T00:43:46.960Z,9.02
2018-01-04T00:46:17.867Z,9.01
2018-01-04T00:48:46.993Z,9.02
2018-01-04T00:51:16.383Z,9.01
2018-01-04T00:53:45.558Z,8.97
2018-01-04T00:56:15.065Z,8.91
2018-01-04T00:58:44.284Z,8.92
2018-01-04T01:01:13.796Z,8.94
2018-01-04T01:06:16.585Z,8.92
2018-01-04T01:08:46.387Z,8.94
2018-01-04T01:11:15.553Z,8.92
2018-01-04T01:13:44.768Z,8.84
2018-01-04T01:16:15.328Z,8.83
2018-01-04T01:18:46.189Z,8.82
2018-01-04T01:21:15.478Z,8.81
2018-01-04T01:23:44.916Z,8.80
2018-01-04T01:26:16.440Z,8.78
2018-01-04T01:28:45.970Z,8.74
2018-01-04T01:31:15.411Z,8.73
2018-01-04T01:33:44.626Z,8.73
2018-01-04T01:36:15.781Z,8.74
2018-01-04T01:38:45.336Z,8.75
2018-01-04T01:41:14.593Z,8.79
2018-01-04T01:43:44.061Z,8.78
2018-01-04T01:46:16.850Z,8.83
2018-01-04T01:48:47.465Z,8.83
2018-01-04T01:51:16.677Z,8.89
2018-01-04T01:53:47.655Z,8.88
2018-01-04T01:56:24.715Z,8.90
2018-01-04T01:58:53.883Z,8.95
2018-01-04T02:01:24.294Z,8.97
2018-01-04T02:03:53.757Z,8.98
2018-01-04T02:06:23.697Z,9.02
2018-01-04T02:08:52.847Z,9.06
2018-01-04T02:11:22.011Z,9.09
2018-01-04T02:13:51.441Z,9.07
2018-01-04T02:16:22.729Z,9.08
2018-01-04T02:19:01.837Z,9.09
2018-01-04T02:22:38.887Z,9.15
2018-01-04T02:26:19.092Z,9.20
2018-01-04T02:29:10.294Z,9.18
2018-01-04T02:35:57.659Z,9.16
2018-01-04T02:39:11.118Z,9.18
2018-01-04T02:41:49.513Z,9.20
2018-01-04T02:44:28.641Z,9.18
2018-01-04T02:46:57.874Z,9.21
2018-01-04T02:49:27.254Z,9.20
2018-01-04T02:51:56.726Z,9.20
2018-01-04T02:54:25.846Z,9.23
2018-01-04T02:56:54.943Z,9.20
2018-01-04T02:59:24.158Z,9.22
2018-01-04T03:01:53.558Z,9.20
2018-01-04T03:04:22.705Z,9.18
2018-01-04T03:06:51.844Z,9.17
2018-01-04T03:09:20.974Z,9.19
2018-01-04T03:11:50.387Z,9.19
2018-01-04T03:14:20.654Z,9.18
2018-01-04T03:16:49.752Z,9.19
2018-01-04T03:19:19.002Z,9.18
2018-01-04T03:21:52.466Z,9.20
2018-01-04T03:24:25.795Z,9.22
2018-01-04T03:29:00.835Z,9.19
2018-01-04T03:31:34.074Z,9.14
2018-01-04T03:36:09.247Z,9.15
2018-01-04T03:39:46.208Z,9.11
2018-01-04T03:44:22.131Z,9.13
2018-01-04T03:48:58.226Z,9.20
2018-01-04T03:51:32.418Z,9.26
2018-01-04T03:54:05.577Z,9.25
2018-01-04T03:58:42.111Z,9.24
2018-01-04T04:03:17.311Z,9.14
2018-01-04T04:05:50.562Z,9.05
2018-01-04T04:08:24.123Z,9.05
2018-01-04T04:10:53.233Z,9.04
2018-01-04T04:13:22.333Z,9.10
2018-01-04T04:15:51.771Z,9.08
2018-01-04T04:18:23.213Z,9.07
2018-01-04T04:20:52.364Z,9.07
2018-01-04T04:23:21.787Z,9.05
2018-01-04T04:25:51.247Z,9.08
2018-01-04T04:28:20.846Z,9.01
2018-01-04T04:30:50.236Z,8.97
2018-01-04T04:33:19.346Z,8.93
2018-01-04T04:35:48.461Z,8.93
2018-01-04T04:38:17.586Z,8.93
2018-01-04T04:40:47.023Z,8.95
2018-01-04T04:43:16.124Z,8.96
2018-01-04T04:45:45.817Z,8.95
2018-01-04T04:48:14.997Z,8.90
2018-01-04T04:50:44.381Z,8.90
2018-01-04T04:53:13.607Z,8.91
2018-01-04T04:55:42.723Z,8.91
2018-01-04T04:58:14.503Z,8.86
2018-01-04T05:00:43.912Z,8.83
2018-01-04T05:03:13.033Z,8.83
2018-01-04T05:05:42.463Z,8.85
2018-01-04T05:08:13.106Z,8.88
2018-01-04T05:10:42.506Z,8.94
2018-01-04T05:13:12.010Z,8.92
2018-01-04T05:15:41.127Z,8.93
2018-01-04T05:18:11.216Z,8.87
2018-01-04T05:20:41.278Z,8.87
2018-01-04T05:23:10.395Z,8.91
2018-01-04T05:25:39.587Z,8.94
2018-01-04T05:28:10.598Z,9.03
2018-01-04T05:30:39.965Z,8.97
2018-01-04T05:33:09.072Z,9.05
2018-01-04T05:35:38.148Z,8.97
2018-01-04T05:38:13.972Z,8.97
2018-01-04T05:40:43.060Z,8.93
2018-01-04T05:43:12.185Z,8.91
2018-01-04T05:45:41.607Z,8.88
2018-01-04T05:48:12.986Z,8.89
2018-01-04T05:50:42.484Z,8.86
2018-01-04T05:53:11.928Z,8.89
2018-01-04T05:55:41.044Z,8.92
2018-01-04T05:58:10.927Z,8.90
2018-01-04T06:00:40.468Z,8.89
2018-01-04T06:03:09.622Z,8.86
2018-01-04T06:05:38.724Z,8.85
2018-01-04T06:08:08.921Z,8.83
2018-01-04T06:10:38.413Z,8.82
2018-01-04T06:13:13.989Z,8.83
2018-01-04T06:15:43.333Z,8.84
2018-01-04T06:18:13.561Z,8.89
2018-01-04T06:20:43.989Z,8.89
2018-01-04T06:23:13.084Z,8.94
2018-01-04T06:25:42.969Z,8.94
2018-01-04T06:28:12.834Z,8.95
2018-01-04T06:30:42.426Z,8.88
2018-01-04T06:33:11.535Z,8.82
2018-01-04T06:35:40.652Z,8.83
2018-01-04T06:38:10.769Z,8.78
2018-01-04T06:40:40.152Z,8.71
2018-01-04T06:43:09.305Z,8.70
2018-01-04T06:45:38.426Z,8.65
2018-01-04T06:48:08.368Z,8.61
2018-01-04T06:50:37.768Z,8.61
2018-01-04T06:53:06.876Z,8.54
2018-01-04T06:55:36.177Z,8.50
2018-01-04T06:58:10.275Z,8.52
2018-01-04T07:00:40.611Z,8.50
2018-01-04T07:03:09.706Z,8.44
2018-01-04T07:05:39.094Z,8.35
2018-01-04T07:08:09.211Z,8.36
2018-01-04T07:10:38.364Z,8.41
2018-01-04T07:13:07.808Z,8.35
2018-01-04T07:15:37.014Z,8.39
2018-01-04T07:18:07.261Z,8.37
2018-01-04T07:20:36.403Z,8.37
2018-01-04T07:23:05.852Z,8.39
2018-01-04T07:25:34.952Z,8.38
2018-01-04T07:28:06.184Z,8.30
2018-01-04T07:30:35.437Z,8.27
2018-01-04T07:33:04.845Z,8.31
2018-01-04T07:35:34.457Z,8.15
2018-01-04T07:38:05.818Z,8.11
2018-01-04T07:40:34.939Z,8.07
2018-01-04T07:43:04.670Z,8.01
2018-01-04T07:45:34.548Z,8.09
2018-01-04T07:48:06.914Z,8.06
2018-01-04T07:50:36.332Z,8.09
2018-01-04T07:53:05.512Z,8.14
2018-01-04T07:55:34.616Z,8.09
2018-01-04T07:58:07.501Z,8.09
2018-01-04T08:00:37.327Z,8.11
2018-01-04T08:03:06.427Z,8.14
2018-01-04T08:05:35.504Z,8.17
2018-01-04T08:08:06.867Z,8.14
2018-01-04T08:10:36.384Z,8.05
2018-01-04T08:13:05.834Z,8.11
2018-01-04T08:15:34.976Z,8.14
2018-01-04T08:18:07.296Z,8.12
2018-01-04T08:20:36.483Z,8.16
2018-01-04T08:23:05.647Z,8.11
2018-01-04T08:25:35.135Z,8.05
2018-01-04T08:28:06.556Z,8.08
2018-01-04T08:30:35.681Z,8.12
2018-01-04T08:33:05.107Z,8.15
2018-01-04T08:35:34.523Z,8.23
2018-01-04T08:38:06.736Z,8.09
2018-01-04T08:40:35.874Z,8.18
2018-01-04T08:43:05.298Z,8.22
2018-01-04T08:45:34.532Z,8.15
2018-01-04T08:48:04.527Z,8.21
2018-01-04T08:50:34.344Z,8.18
2018-01-04T08:53:04.121Z,8.21
2018-01-04T08:55:33.734Z,8.21
2018-01-04T08:58:06.109Z,8.23
2018-01-04T09:00:36.143Z,8.26
2018-01-04T09:03:05.794Z,8.11
2018-01-04T09:05:35.112Z,8.19
2018-01-04T09:08:12.146Z,8.18
2018-01-04T09:10:41.238Z,8.18
2018-01-04T09:13:11.573Z,8.15
2018-01-04T09:18:09.760Z,8.20
2018-01-04T09:20:39.015Z,8.15
2018-01-04T09:23:08.397Z,8.18
2018-01-04T09:25:38.007Z,8.15
2018-01-04T09:28:07.888Z,8.16
2018-01-04T09:30:37.215Z,8.22
2018-01-04T09:33:06.819Z,8.22
2018-01-04T09:35:35.918Z,8.26
2018-01-04T09:38:08.211Z,8.30
2018-01-04T09:40:37.660Z,8.34
2018-01-04T09:43:07.941Z,8.37
2018-01-04T09:45:37.207Z,8.35
2018-01-04T09:48:09.636Z,8.35
2018-01-04T09:50:38.893Z,8.42
2018-01-04T09:53:09.232Z,8.43
2018-01-04T09:55:39.094Z,8.44
2018-01-04T09:58:10.788Z,8.45
2018-01-04T10:00:39.915Z,8.44
2018-01-04T10:03:09.405Z,8.52
2018-01-04T10:05:38.563Z,8.49
2018-01-04T10:08:08.264Z,8.50
2018-01-04T10:10:43.321Z,8.51
2018-01-04T10:13:13.669Z,8.56
2018-01-04T10:15:43.677Z,8.60
2018-01-04T10:18:15.076Z,8.63
2018-01-04T10:20:46.178Z,8.60
2018-01-04T10:23:15.322Z,8.66
2018-01-04T10:25:44.455Z,8.64
2018-01-04T10:28:16.768Z,8.73
2018-01-04T10:30:46.183Z,8.70
2018-01-04T10:33:15.319Z,8.78
2018-01-04T10:35:45.704Z,8.86
2018-01-04T10:38:15.169Z,8.77
2018-01-04T10:40:44.908Z,8.78
2018-01-04T10:43:14.115Z,8.81
2018-01-04T10:45:44.662Z,8.87
2018-01-04T10:48:14.118Z,8.74
2018-01-04T10:50:43.324Z,8.75
2018-01-04T10:53:12.449Z,8.79
2018-01-04T10:55:41.582Z,8.88
2018-01-04T10:58:15.630Z,8.84
2018-01-04T11:00:46.502Z,8.83
2018-01-04T11:03:22.192Z,8.80
2018-01-04T11:05:58.485Z,8.79
2018-01-04T11:08:36.885Z,8.81
2018-01-04T11:11:06.249Z,8.80
2018-01-04T11:13:36.533Z,8.94
2018-01-04T11:16:11.622Z,9.05
2018-01-04T11:18:40.802Z,9.06
2018-01-04T11:21:10.256Z,9.11
2018-01-04T11:23:39.380Z,9.04
2018-01-04T11:26:10.393Z,8.99
2018-01-04T11:28:39.612Z,8.89
2018-01-04T11:31:09.242Z,9.06
2018-01-04T11:33:38.382Z,9.07
2018-01-04T11:36:08.493Z,8.94
2018-01-04T11:38:39.636Z,9.05
2018-01-04T11:41:09.089Z,9.17
2018-01-04T11:43:38.237Z,9.23
2018-01-04T11:46:10.271Z,9.13
2018-01-04T11:48:39.485Z,9.14
2018-01-04T11:51:09.058Z,9.14
2018-01-04T11:53:38.772Z,9.21
2018-01-04T11:56:07.910Z,9.30
2018-01-04T11:58:37.135Z,9.21
2018-01-04T12:01:06.611Z,9.21
2018-01-04T12:03:35.865Z,9.24
2018-01-04T12:06:09.931Z,9.28
2018-01-04T12:08:39.131Z,9.40
2018-01-04T12:11:08.251Z,9.42
2018-01-04T12:13:37.418Z,9.38
2018-01-04T12:16:08.922Z,9.48
2018-01-04T12:18:38.117Z,9.47
2018-01-04T12:21:07.191Z,9.46
2018-01-04T12:23:37.900Z,9.40
2018-01-04T12:26:14.330Z,9.40
2018-01-04T12:28:44.674Z,9.44
2018-01-04T12:31:14.498Z,9.44
2018-01-04T12:33:43.647Z,9.52
2018-01-04T12:36:14.790Z,9.50
2018-01-04T12:38:44.104Z,9.49
2018-01-04T12:41:13.594Z,9.58
2018-01-04T12:43:42.719Z,9.52
2018-01-04T12:46:13.818Z,9.58
2018-01-04T12:48:43.466Z,9.67
2018-01-04T12:51:13.339Z,9.66
2018-01-04T12:53:42.869Z,9.69
2018-01-04T12:56:13.970Z,9.67
2018-01-04T12:58:43.100Z,9.64
2018-01-04T13:01:12.863Z,9.74
2018-01-04T13:03:42.379Z,9.73
2018-01-04T13:06:11.708Z,9.66
2018-01-04T13:08:41.223Z,9.66
2018-01-04T13:11:10.706Z,9.73
2018-01-04T13:13:39.873Z,9.74
2018-01-04T13:16:10.058Z,9.75
2018-01-04T13:18:39.500Z,9.83
2018-01-04T13:21:08.628Z,9.79
2018-01-04T13:23:38.346Z,9.90
2018-01-04T13:26:09.079Z,9.88
2018-01-04T13:28:38.175Z,9.95
2018-01-04T13:31:07.453Z,9.96
2018-01-04T13:33:36.940Z,9.96
2018-01-04T13:36:08.056Z,10.07
2018-01-04T13:38:37.175Z,10.14
2018-01-04T13:41:06.365Z,10.08
2018-01-04T13:43:35.890Z,10.18
2018-01-04T13:46:07.386Z,10.14
2018-01-04T13:48:36.533Z,10.17
2018-01-04T13:51:06.298Z,10.16
2018-01-04T13:53:36.301Z,10.16
2018-01-04T13:56:07.575Z,10.22
2018-01-04T13:58:36.686Z,10.26
2018-01-04T14:01:05.827Z,10.33
2018-01-04T14:03:34.974Z,10.29
2018-01-04T14:06:06.966Z,10.34
2018-01-04T14:08:36.079Z,10.35
2018-01-04T14:11:05.222Z,10.36
2018-01-04T14:13:35.675Z,10.33
2018-01-04T14:16:08.111Z,10.47
2018-01-04T14:18:37.243Z,10.44
2018-01-04T14:21:06.390Z,10.53
2018-01-04T14:23:35.530Z,10.50
2018-01-04T14:26:08.101Z,10.50
2018-01-04T14:28:37.207Z,10.47
2018-01-04T14:31:06.408Z,10.44
2018-01-04T14:33:36.195Z,10.42
2018-01-04T14:36:08.073Z,10.58
2018-01-04T14:38:37.196Z,10.63
2018-01-04T14:41:06.297Z,10.64
2018-01-04T14:43:36.748Z,10.65
2018-01-04T14:46:09.706Z,10.63
2018-01-04T14:48:38.842Z,10.67
2018-01-04T14:51:07.980Z,10.69
2018-01-04T14:53:37.102Z,10.67
2018-01-04T14:56:07.293Z,10.76
2018-01-04T14:58:36.452Z,10.81
2018-01-04T15:01:05.628Z,10.79
2018-01-04T15:03:34.859Z,10.76
2018-01-04T15:06:05.979Z,10.78
2018-01-04T15:08:35.257Z,10.91
2018-01-04T15:11:05.174Z,10.94
2018-01-04T15:13:35.936Z,11.00
2018-01-04T15:16:11.786Z,11.04
2018-01-04T15:18:40.914Z,11.08
2018-01-04T15:21:10.383Z,11.13
2018-01-04T15:23:40.165Z,11.14
2018-01-04T15:26:10.662Z,11.20
2018-01-04T15:28:40.146Z,11.26
2018-01-04T15:31:09.289Z,11.26
2018-01-04T15:33:38.430Z,11.31
2018-01-04T15:36:09.069Z,11.42
2018-01-04T15:38:38.437Z,11.42
2018-01-04T15:44:00.598Z,11.57
2018-01-04T15:46:30.698Z,11.67
2018-01-04T15:48:59.836Z,11.73
2018-01-04T15:51:29.011Z,11.82
2018-01-04T15:53:58.511Z,11.96
2018-01-04T15:56:27.704Z,12.10
2018-01-04T15:58:56.866Z,12.11
2018-01-04T16:01:26.056Z,12.24
2018-01-04T16:03:55.748Z,12.35
2018-01-04T16:06:24.998Z,12.43
2018-01-04T16:08:54.314Z,12.48
2018-01-04T16:11:23.608Z,12.60
2018-01-04T16:13:53.071Z,12.64
2018-01-04T16:16:22.747Z,12.66
2018-01-04T16:18:53.213Z,12.74
2018-01-04T16:21:22.718Z,12.83
2018-01-04T16:23:51.911Z,12.85
2018-01-04T16:26:23.810Z,12.91
2018-01-04T16:28:55.060Z,13.02
2018-01-04T16:31:24.225Z,13.16
2018-01-04T16:33:54.281Z,13.14
2018-01-04T16:36:28.657Z,13.23
2018-01-04T16:39:03.222Z,13.26
2018-01-04T16:41:32.464Z,13.31
2018-01-04T16:44:04.371Z,13.32
2018-01-04T16:46:33.540Z,13.42
2018-01-04T16:49:03.020Z,13.40
2018-01-04T16:51:32.425Z,13.39
2018-01-04T16:54:04.258Z,13.43
2018-01-04T16:56:33.380Z,13.50
2018-01-04T16:59:03.434Z,13.60
2018-01-04T17:01:32.780Z,13.65
2018-01-04T17:04:06.436Z,13.68
2018-01-04T17:09:05.288Z,13.75
2018-01-04T17:11:34.398Z,13.85
2018-01-04T17:14:06.329Z,13.89
2018-01-04T17:17:37.845Z,13.97
2018-01-04T17:20:14.209Z,14.09
2018-01-04T17:22:43.452Z,14.12
2018-01-04T17:25:12.708Z,14.17
2018-01-04T17:27:42.341Z,14.18
2018-01-04T17:30:12.504Z,14.22
2018-01-04T17:32:41.750Z,14.20
2018-01-04T17:35:13.293Z,14.19
2018-01-04T17:37:42.984Z,14.16
2018-01-04T17:40:14.631Z,14.13
2018-01-04T17:42:43.753Z,14.17
2018-01-04T17:45:12.902Z,14.23
2018-01-04T17:47:43.974Z,14.21
2018-01-04T17:50:17.401Z,14.22
2018-01-04T17:52:47.308Z,14.23
2018-01-04T17:55:16.709Z,14.20
2018-01-04T17:57:46.463Z,14.21
2018-01-04T18:00:16.882Z,14.21
2018-01-04T18:02:46.602Z,14.26
2018-01-04T18:05:16.618Z,14.24
2018-01-04T18:07:45.783Z,14.29
2018-01-04T18:10:16.027Z,14.29
2018-01-04T18:12:45.457Z,14.26
2018-01-04T18:15:14.795Z,14.12
2018-01-04T18:17:45.873Z,14.06
2018-01-04T18:20:15.350Z,14.05
2018-01-04T18:22:44.484Z,13.87
2018-01-04T18:25:14.265Z,13.82
2018-01-04T18:27:43.725Z,13.71
2018-01-04T18:30:17.514Z,13.57
2018-01-04T18:32:46.655Z,13.50
2018-01-04T18:35:16.092Z,13.37
2018-01-04T18:37:46.761Z,13.34
2018-01-04T18:40:20.932Z,13.34
2018-01-04T18:42:50.824Z,13.27
2018-01-04T18:45:20.040Z,13.23
2018-01-04T18:47:49.842Z,13.17
2018-01-04T18:50:19.962Z,13.16
2018-01-04T18:52:49.077Z,13.12
2018-01-04T18:55:18.223Z,13.14
2018-01-04T18:57:47.359Z,13.12
2018-01-04T19:00:19.049Z,13.10
2018-01-04T19:02:48.585Z,13.10
2018-01-04T19:05:18.567Z,13.10
2018-01-04T19:07:47.972Z,13.17
2018-01-04T19:10:20.259Z,13.14
2018-01-04T19:12:49.394Z,13.04
2018-01-04T19:15:18.515Z,13.07
2018-01-04T19:17:47.967Z,13.04
2018-01-04T19:20:17.249Z,12.93
2018-01-04T19:22:46.391Z,12.91
2018-01-04T19:25:16.334Z,12.94
2018-01-04T19:27:46.411Z,12.92
2018-01-04T19:30:16.511Z,12.85
2018-01-04T19:32:47.324Z,12.73
2018-01-04T19:35:16.447Z,12.76
2018-01-04T19:37:47.200Z,12.64
2018-01-04T19:40:20.805Z,12.62
2018-01-04T19:42:51.605Z,12.65
2018-01-04T19:45:21.347Z,12.64
2018-01-04T19:47:50.435Z,12.66
2018-01-04T19:50:24.145Z,12.68
2018-01-04T19:52:53.341Z,12.70
2018-01-04T19:55:22.584Z,12.71
2018-01-04T19:57:51.885Z,12.81
2018-01-04T20:00:21.373Z,12.78
2018-01-04T20:02:53.646Z,12.82
2018-01-04T20:05:23.082Z,12.78
2018-01-04T20:07:52.472Z,12.80
2018-01-04T20:10:23.876Z,12.75
2018-01-04T20:12:53.297Z,12.73
2018-01-04T20:15:22.817Z,12.73
2018-01-04T20:17:52.031Z,12.71
2018-01-04T20:20:21.805Z,12.69
2018-01-04T20:22:51.330Z,12.67
2018-01-04T20:25:20.508Z,12.64
2018-01-04T20:27:51.995Z,12.58
2018-01-04T20:30:23.402Z,12.60
2018-01-04T20:32:53.861Z,12.53
2018-01-04T20:35:23.655Z,12.54
2018-01-04T20:37:54.494Z,12.56
2018-01-04T20:40:25.151Z,12.47
2018-01-04T20:42:57.600Z,12.43
2018-01-04T20:45:27.750Z,12.39
2018-01-04T20:47:56.891Z,12.33
2018-01-04T20:50:26.063Z,12.28
2018-01-04T20:52:55.575Z,12.25
2018-01-04T20:55:24.897Z,12.19
2018-01-04T20:57:54.207Z,12.18
2018-01-04T21:00:25.770Z,12.20
2018-01-04T21:02:54.958Z,12.16
2018-01-04T21:05:25.244Z,12.11
2018-01-04T21:07:54.579Z,12.07
2018-01-04T21:10:23.927Z,12.03
2018-01-04T21:12:55.703Z,12.09
2018-01-04T21:15:25.289Z,12.03
2018-01-04T21:17:54.972Z,12.00
2018-01-04T21:20:24.144Z,11.98
2018-01-04T21:22:53.361Z,11.97
2018-01-04T21:25:22.513Z,11.94
2018-01-04T21:27:52.323Z,11.98
2018-01-04T21:30:22.570Z,11.98
2018-01-04T21:32:52.623Z,12.00
2018-01-04T21:35:22.338Z,11.97
2018-01-04T21:37:55.214Z,11.95
2018-01-04T21:40:25.300Z,11.95
2018-01-04T21:42:54.960Z,11.98
2018-01-04T21:45:24.094Z,11.95
2018-01-04T21:47:53.766Z,11.93
2018-01-04T21:50:24.508Z,11.96
2018-01-04T21:52:53.772Z,12.02
2018-01-04T21:55:22.979Z,12.05
2018-01-04T21:57:52.736Z,12.06
2018-01-04T22:00:23.779Z,12.09
2018-01-04T22:02:55.402Z,12.10
2018-01-04T22:05:24.676Z,12.03
2018-01-04T22:07:53.911Z,12.01
2018-01-04T22:10:23.646Z,11.97
2018-01-04T22:12:53.141Z,11.96
2018-01-04T22:15:22.656Z,11.93
2018-01-04T22:17:53.291Z,11.94
2018-01-04T22:20:23.634Z,11.91
2018-01-04T22:22:53.308Z,11.89
2018-01-04T22:25:23.162Z,11.80
2018-01-04T22:27:53.391Z,11.80
2018-01-04T22:30:23.394Z,11.72
2018-01-04T22:32:53.914Z,11.69
2018-01-04T22:35:23.715Z,11.67
2018-01-04T22:37:53.410Z,11.60
2018-01-04T22:40:22.879Z,11.66
2018-01-04T22:42:53.359Z,11.61
2018-01-04T22:45:22.623Z,11.58
2018-01-04T22:47:53.597Z,11.54
2018-01-04T22:50:23.983Z,11.53
2018-01-04T22:52:53.187Z,11.52
2018-01-04T22:55:22.359Z,11.52
2018-01-04T22:57:51.872Z,11.52
2018-01-04T23:00:23.762Z,11.51
2018-01-04T23:02:52.891Z,11.51
2018-01-04T23:05:22.318Z,11.51
2018-01-04T23:07:51.451Z,11.52
2018-01-04T23:10:22.518Z,11.55
2018-01-04T23:12:51.733Z,11.55
2018-01-04T23:15:21.138Z,11.56
2018-01-04T23:17:50.324Z,11.56
2018-01-04T23:20:21.946Z,11.56
2018-01-04T23:22:51.936Z,11.60
2018-01-04T23:25:21.245Z,11.64
2018-01-04T23:27:50.699Z,11.73
2018-01-04T23:30:21.933Z,11.69
2018-01-04T23:32:52.589Z,11.71
2018-01-04T23:35:30.140Z,11.76
2018-01-04T23:38:54.792Z,11.75
2018-01-04T23:47:26.580Z,11.70
2018-01-04T23:51:13.297Z,11.67
2018-01-04T23:53:45.109Z,11.54
